createdAt,value
2022-12-13T00:01:53.982Z,31.10
2022-12-13T00:04:23.584Z,33.17
2022-12-13T00:06:53.312Z,39.43
2022-12-13T00:09:21.674Z,33.63
2022-12-13T00:11:51.587Z,28.97
2022-12-13T00:14:23.590Z,32.80
2022-12-13T00:16:53.729Z,32.23
2022-12-13T00:19:24.179Z,33.50
2022-12-13T00:21:53.650Z,32.57
2022-12-13T00:24:24.807Z,33.83
2022-12-13T00:26:55.000Z,32.70
2022-12-13T00:29:23.289Z,29.60
2022-12-13T00:32:00.219Z,33.80
2022-12-13T00:34:27.681Z,29.97
2022-12-13T00:36:54.189Z,31.00
2022-12-13T00:39:22.053Z,35.47
2022-12-13T00:41:55.430Z,32.27
2022-12-13T00:44:25.414Z,29.77
2022-12-13T00:46:54.070Z,32.83
2022-12-13T00:49:24.052Z,33.17
2022-12-13T00:51:53.095Z,30.77
2022-12-13T00:54:22.626Z,32.73
2022-12-13T00:56:52.157Z,35.70
2022-12-13T00:59:21.634Z,31.33
2022-12-13T01:01:52.806Z,32.43
2022-12-13T01:04:20.597Z,31.50
2022-12-13T01:06:50.676Z,32.53
2022-12-13T01:09:26.537Z,36.63
2022-12-13T01:11:59.524Z,36.27
2022-12-13T01:14:26.520Z,40.53
2022-12-13T01:16:55.026Z,29.50
2022-12-13T01:19:26.540Z,36.23
2022-12-13T01:21:56.152Z,36.83
2022-12-13T01:24:25.372Z,29.97
2022-12-13T01:26:56.965Z,37.70
2022-12-13T01:29:25.948Z,40.33
2022-12-13T01:31:54.772Z,34.20
2022-12-13T01:34:26.964Z,30.63
2022-12-13T01:36:59.427Z,30.13
2022-12-13T01:39:28.959Z,34.07
2022-12-13T01:41:58.914Z,35.43
2022-12-13T01:45:01.745Z,31.70
2022-12-13T01:47:46.426Z,29.97
2022-12-13T01:50:22.053Z,33.37
2022-12-13T01:52:54.306Z,35.87
2022-12-13T01:55:22.317Z,28.87
2022-12-13T01:57:55.334Z,31.33
2022-12-13T02:00:26.226Z,32.63
2022-12-13T02:02:58.529Z,34.20
2022-12-13T02:05:36.644Z,31.47
2022-12-13T02:08:10.050Z,32.43
2022-12-13T02:10:41.890Z,32.13
2022-12-13T02:13:15.446Z,36.67
2022-12-13T02:15:57.880Z,32.03
2022-12-13T02:18:40.509Z,33.00
2022-12-13T02:21:21.390Z,33.73
2022-12-13T02:24:17.338Z,28.03
2022-12-13T02:27:11.287Z,32.53
2022-12-13T02:30:04.947Z,29.27
2022-12-13T02:32:55.879Z,31.60
2022-12-13T02:35:35.045Z,33.50
2022-12-13T02:38:12.672Z,32.77
2022-12-13T02:40:55.252Z,30.13
2022-12-13T02:43:38.333Z,34.93
2022-12-13T02:46:21.223Z,30.97
2022-12-13T02:48:52.425Z,31.10
2022-12-13T02:51:24.038Z,35.80
2022-12-13T02:54:00.589Z,30.70
2022-12-13T02:56:31.778Z,38.30
2022-12-13T02:59:03.222Z,32.00
2022-12-13T03:01:42.064Z,32.70
2022-12-13T03:04:29.741Z,32.07
2022-12-13T03:07:17.247Z,33.47
2022-12-13T03:10:05.261Z,34.17
2022-12-13T03:13:12.780Z,32.03
2022-12-13T03:15:54.619Z,32.30
2022-12-13T03:18:29.462Z,32.07
2022-12-13T03:21:02.036Z,28.93
2022-12-13T03:23:37.490Z,32.30
2022-12-13T03:26:10.873Z,28.60
2022-12-13T03:28:41.924Z,32.97
2022-12-13T03:31:23.864Z,30.57
2022-12-13T03:33:53.318Z,30.30
2022-12-13T03:36:23.473Z,34.60
2022-12-13T03:38:53.303Z,27.53
2022-12-13T03:41:30.694Z,32.60
2022-12-13T03:43:58.579Z,27.43
2022-12-13T03:46:24.798Z,28.53
2022-12-13T03:48:59.268Z,23.50
2022-12-13T03:51:29.207Z,36.13
2022-12-13T03:53:59.444Z,20.10
2022-12-13T03:56:28.434Z,30.13
2022-12-13T03:58:58.881Z,35.40
2022-12-13T04:01:28.255Z,33.30
2022-12-13T04:03:57.819Z,32.07
2022-12-13T04:06:33.213Z,30.83
2022-12-13T04:09:01.206Z,23.90
2022-12-13T04:11:49.345Z,30.17
2022-12-13T04:14:22.306Z,26.87
2022-12-13T04:16:50.481Z,30.57
2022-12-13T04:19:16.626Z,29.30
2022-12-13T04:21:57.516Z,34.30
2022-12-13T04:24:31.654Z,31.07
2022-12-13T04:27:00.826Z,29.90
2022-12-13T04:29:27.706Z,36.83
2022-12-13T04:32:05.696Z,28.07
2022-12-13T04:34:51.706Z,31.80
2022-12-13T04:37:22.080Z,28.53
2022-12-13T04:39:52.948Z,33.17
2022-12-13T04:42:31.459Z,28.60
2022-12-13T04:45:04.724Z,24.87
2022-12-13T04:47:35.023Z,28.57
2022-12-13T04:50:05.436Z,28.30
2022-12-13T04:52:36.684Z,29.00
2022-12-13T04:55:08.320Z,26.97
2022-12-13T04:57:39.216Z,28.80
2022-12-13T05:00:12.550Z,30.73
2022-12-13T05:02:43.733Z,28.27
2022-12-13T05:05:14.454Z,31.77
2022-12-13T05:07:45.175Z,31.97
2022-12-13T05:10:35.793Z,30.90
2022-12-13T05:13:08.323Z,29.63
2022-12-13T05:15:38.273Z,32.53
2022-12-13T05:18:10.986Z,28.77
2022-12-13T05:20:41.386Z,38.03
2022-12-13T05:23:11.733Z,23.00
2022-12-13T05:25:46.813Z,32.57
2022-12-13T05:28:27.723Z,33.23
2022-12-13T05:31:22.962Z,29.60
2022-12-13T05:33:50.854Z,31.93
2022-12-13T05:36:24.506Z,26.13
2022-12-13T05:38:59.073Z,28.70
2022-12-13T05:41:27.211Z,20.87
2022-12-13T05:43:53.293Z,25.03
2022-12-13T05:46:21.189Z,26.80
2022-12-13T05:48:53.724Z,29.30
2022-12-13T05:51:23.269Z,24.23
2022-12-13T05:53:53.554Z,26.33
2022-12-13T05:56:23.323Z,23.73
2022-12-13T05:58:53.756Z,21.67
2022-12-13T06:01:22.235Z,24.57
2022-12-13T06:03:52.002Z,27.73
2022-12-13T06:06:23.615Z,20.90
2022-12-13T06:08:53.694Z,22.07
2022-12-13T06:11:32.081Z,25.03
2022-12-13T06:14:01.185Z,31.47
2022-12-13T06:16:27.855Z,24.00
2022-12-13T06:19:03.117Z,24.80
2022-12-13T06:21:39.183Z,25.13
2022-12-13T06:24:15.319Z,24.93
2022-12-13T06:26:41.477Z,24.70
2022-12-13T06:29:07.495Z,24.33
2022-12-13T06:31:33.564Z,27.73
2022-12-13T06:34:13.993Z,22.60
2022-12-13T06:36:42.081Z,25.83
2022-12-13T06:39:08.134Z,27.07
2022-12-13T06:41:41.809Z,27.10
2022-12-13T06:44:07.869Z,29.40
2022-12-13T06:46:34.053Z,30.43
2022-12-13T06:49:00.728Z,28.33
2022-12-13T06:51:36.456Z,30.83
2022-12-13T06:54:02.694Z,30.47
2022-12-13T06:56:29.959Z,29.10
2022-12-13T06:59:01.649Z,28.50
2022-12-13T07:01:37.007Z,30.47
2022-12-13T07:04:05.211Z,25.27
2022-12-13T07:06:51.277Z,30.60
2022-12-13T07:09:21.364Z,30.77
2022-12-13T07:11:51.951Z,25.10
2022-12-13T07:14:19.217Z,30.07
2022-12-13T07:16:56.754Z,20.30
2022-12-13T07:19:35.437Z,30.47
2022-12-13T07:22:04.875Z,31.50
2022-12-13T07:24:37.000Z,30.30
2022-12-13T07:27:07.359Z,20.20
2022-12-13T07:29:33.402Z,39.30
2022-12-13T07:32:01.486Z,25.80
2022-12-13T07:34:31.972Z,30.73
2022-12-13T07:37:03.166Z,32.60
2022-12-13T07:39:31.500Z,30.70
2022-12-13T07:41:57.539Z,28.20
2022-12-13T07:44:28.172Z,28.30
2022-12-13T07:46:57.176Z,32.83
2022-12-13T07:49:23.233Z,35.53
2022-12-13T07:51:49.347Z,22.23
2022-12-13T07:54:19.207Z,30.80
2022-12-13T07:56:45.917Z,34.03
2022-12-13T07:59:12.293Z,23.57
2022-12-13T08:01:38.445Z,31.47
2022-12-13T08:04:13.475Z,30.63
2022-12-13T08:06:39.730Z,29.30
2022-12-13T08:09:06.323Z,26.87
2022-12-13T08:11:32.905Z,26.00
2022-12-13T08:14:09.291Z,30.23
2022-12-13T08:16:38.149Z,29.50
2022-12-13T08:19:09.429Z,31.27
2022-12-13T08:21:57.405Z,26.40
2022-12-13T08:24:26.511Z,29.13
2022-12-13T08:26:52.870Z,26.13
2022-12-13T08:29:22.886Z,23.10
2022-12-13T08:32:08.512Z,27.63
2022-12-13T08:34:34.716Z,22.70
2022-12-13T08:37:01.404Z,26.93
2022-12-13T08:39:36.323Z,29.87
2022-12-13T08:42:16.504Z,27.07
2022-12-13T08:44:51.723Z,25.17
2022-12-13T08:47:26.249Z,23.10
2022-12-13T08:50:03.775Z,26.27
2022-12-13T08:52:42.605Z,28.60
2022-12-13T08:55:13.956Z,28.50
2022-12-13T08:57:45.089Z,28.80
2022-12-13T09:00:20.159Z,25.00
2022-12-13T09:02:50.805Z,27.80
2022-12-13T09:05:33.363Z,30.23
2022-12-13T09:08:23.756Z,28.97
2022-12-13T09:10:59.316Z,29.50
2022-12-13T09:13:35.303Z,29.07
2022-12-13T09:16:23.185Z,26.20
2022-12-13T09:19:25.484Z,34.93
2022-12-13T09:21:49.314Z,30.87
2022-12-13T09:24:23.643Z,25.93
2022-12-13T09:26:57.146Z,28.90
2022-12-13T09:29:23.916Z,29.73
2022-12-13T09:31:53.321Z,30.27
2022-12-13T09:34:27.572Z,31.47
2022-12-13T09:36:55.717Z,25.73
2022-12-13T09:39:28.615Z,30.00
2022-12-13T09:42:01.269Z,27.60
2022-12-13T09:45:00.962Z,29.83
2022-12-13T09:47:47.235Z,26.20
2022-12-13T09:50:25.128Z,28.70
2022-12-13T09:52:59.870Z,33.53
2022-12-13T09:55:33.761Z,32.33
2022-12-13T09:58:34.196Z,33.03
2022-12-13T10:01:05.443Z,28.00
2022-12-13T10:03:36.117Z,30.30
2022-12-13T10:06:22.820Z,30.67
2022-12-13T10:08:57.760Z,29.87
2022-12-13T10:11:32.491Z,24.97
2022-12-13T10:14:06.415Z,33.17
2022-12-13T10:16:36.388Z,30.97
2022-12-13T10:19:28.067Z,30.10
2022-12-13T10:22:02.185Z,33.77
2022-12-13T10:25:05.414Z,28.97
2022-12-13T10:27:38.434Z,29.17
2022-12-13T10:30:16.243Z,29.40
2022-12-13T10:33:01.019Z,25.67
2022-12-13T10:35:32.037Z,29.57
2022-12-13T10:38:08.905Z,33.17
2022-12-13T10:40:44.546Z,26.03
2022-12-13T10:43:26.784Z,24.60
2022-12-13T10:46:00.939Z,29.80
2022-12-13T10:48:39.132Z,23.60
2022-12-13T10:51:12.427Z,30.70
2022-12-13T10:53:47.884Z,28.10
2022-12-13T10:56:23.548Z,28.87
2022-12-13T10:59:17.776Z,34.33
2022-12-13T11:01:44.319Z,25.33
2022-12-13T11:04:30.880Z,26.67
2022-12-13T11:07:22.441Z,25.90
2022-12-13T11:09:53.601Z,23.47
2022-12-13T11:12:25.968Z,26.90
2022-12-13T11:15:00.351Z,23.20
2022-12-13T11:17:33.205Z,30.17
2022-12-13T11:20:06.718Z,33.33
2022-12-13T11:22:37.737Z,27.13
2022-12-13T11:25:23.489Z,32.37
2022-12-13T11:28:26.259Z,31.73
2022-12-13T11:31:16.956Z,31.93
2022-12-13T11:34:09.143Z,32.33
2022-12-13T11:37:15.893Z,31.60
2022-12-13T11:39:54.120Z,26.93
2022-12-13T11:42:40.017Z,36.67
2022-12-13T11:45:23.229Z,32.00
2022-12-13T11:48:08.697Z,30.03
2022-12-13T11:50:50.027Z,33.40
2022-12-13T11:53:31.030Z,31.63
2022-12-13T11:56:12.203Z,28.50
2022-12-13T11:59:26.830Z,32.27
2022-12-13T12:02:05.579Z,31.97
2022-12-13T12:04:45.428Z,32.67
2022-12-13T12:07:32.751Z,31.50
2022-12-13T12:10:34.228Z,32.20
2022-12-13T12:13:32.680Z,26.47
2022-12-13T12:16:35.412Z,30.70
2022-12-13T12:19:02.250Z,31.17
2022-12-13T12:22:12.657Z,35.17
2022-12-13T12:25:28.377Z,32.33
2022-12-13T12:28:13.424Z,30.23
2022-12-13T12:30:52.410Z,31.30
2022-12-13T12:33:25.431Z,34.23
2022-12-13T12:36:33.149Z,28.27
2022-12-13T12:39:26.498Z,27.63
2022-12-13T12:42:05.933Z,25.80
2022-12-13T12:45:00.985Z,30.57
2022-12-13T12:48:46.283Z,27.87
2022-12-13T12:50:46.240Z,25.57
2022-12-13T12:53:35.472Z,29.80
2022-12-13T12:56:10.017Z,31.33
2022-12-13T12:58:54.725Z,30.37
2022-12-13T13:01:37.732Z,26.03
2022-12-13T13:04:22.271Z,30.27
2022-12-13T13:07:01.850Z,27.80
2022-12-13T13:09:33.441Z,29.40
2022-12-13T13:12:29.680Z,31.20
2022-12-13T13:15:00.036Z,30.50
2022-12-13T13:17:30.127Z,38.70
2022-12-13T13:20:22.908Z,25.00
2022-12-13T13:23:17.668Z,29.70
2022-12-13T13:26:07.709Z,30.17
2022-12-13T13:28:30.923Z,27.77
2022-12-13T13:31:08.228Z,30.87
2022-12-13T13:33:42.020Z,28.33
2022-12-13T13:36:08.358Z,28.83
2022-12-13T13:38:50.131Z,36.33
2022-12-13T13:41:40.547Z,35.00
2022-12-13T13:44:44.732Z,31.33
2022-12-13T13:47:21.486Z,29.97
2022-12-13T13:50:07.994Z,30.10
2022-12-13T13:52:44.085Z,27.40
2022-12-13T13:55:26.247Z,28.23
2022-12-13T13:58:21.657Z,27.40
2022-12-13T14:01:25.508Z,33.70
2022-12-13T14:04:43.465Z,29.73
2022-12-13T14:07:27.372Z,34.37
2022-12-13T14:10:17.966Z,32.53
2022-12-13T14:13:16.985Z,31.90
2022-12-13T14:15:49.728Z,34.60
2022-12-13T14:18:52.853Z,34.50
2022-12-13T14:21:32.430Z,35.90
2022-12-13T14:24:16.419Z,31.47
2022-12-13T14:27:09.744Z,31.10
2022-12-13T14:29:48.296Z,36.17
2022-12-13T14:32:37.076Z,36.93
2022-12-13T14:35:26.005Z,36.63
2022-12-13T14:38:25.598Z,38.80
2022-12-13T14:40:57.485Z,34.27
2022-12-13T14:43:34.189Z,36.63
2022-12-13T14:46:05.469Z,34.20
2022-12-13T14:48:44.661Z,35.67
2022-12-13T14:51:30.765Z,30.47
2022-12-13T14:54:03.495Z,44.07
2022-12-13T14:56:34.008Z,39.97
2022-12-13T14:59:11.656Z,34.37
2022-12-13T15:01:43.763Z,37.70
2022-12-13T15:04:35.063Z,34.97
2022-12-13T15:07:10.717Z,39.70
2022-12-13T15:09:42.529Z,31.67
2022-12-13T15:12:24.553Z,28.97
2022-12-13T15:14:59.371Z,32.80
2022-12-13T15:17:39.211Z,31.67
2022-12-13T15:20:22.952Z,30.90
2022-12-13T15:22:58.522Z,35.40
2022-12-13T15:25:29.056Z,38.27
2022-12-13T15:27:58.635Z,32.10
2022-12-13T15:30:30.829Z,31.97
2022-12-13T15:33:07.398Z,28.07
2022-12-13T15:35:37.529Z,37.50
2022-12-13T15:38:03.728Z,34.97
2022-12-13T15:40:30.473Z,36.77
2022-12-13T15:43:01.120Z,31.13
2022-12-13T15:45:36.928Z,31.47
2022-12-13T15:48:04.205Z,29.97
2022-12-13T15:50:43.808Z,37.13
2022-12-13T15:53:22.823Z,32.13
2022-12-13T15:55:49.096Z,43.40
2022-12-13T15:58:30.257Z,40.17
2022-12-13T16:01:06.975Z,36.60
2022-12-13T16:03:42.256Z,36.47
2022-12-13T16:06:21.648Z,30.47
2022-12-13T16:08:54.207Z,32.50
2022-12-13T16:11:32.120Z,35.70
2022-12-13T16:14:26.407Z,40.13
2022-12-13T16:17:19.201Z,32.30
2022-12-13T16:19:50.470Z,27.13
2022-12-13T16:22:23.016Z,34.77
2022-12-13T16:24:55.729Z,30.90
2022-12-13T16:27:26.169Z,28.30
2022-12-13T16:29:57.444Z,35.87
2022-12-13T16:32:27.414Z,39.03
2022-12-13T16:34:57.440Z,35.13
2022-12-13T16:37:27.450Z,32.93
2022-12-13T16:40:18.541Z,36.40
2022-12-13T16:42:44.559Z,35.10
2022-12-13T16:45:40.543Z,36.37
2022-12-13T16:48:04.467Z,33.33
2022-12-13T16:50:30.514Z,29.27
2022-12-13T16:52:56.673Z,27.87
2022-12-13T16:55:30.668Z,32.13
2022-12-13T16:58:03.245Z,33.27
2022-12-13T17:00:29.962Z,36.23
2022-12-13T17:02:57.313Z,30.17
2022-12-13T17:05:28.153Z,37.10
2022-12-13T17:07:57.792Z,33.77
2022-12-13T17:10:23.959Z,40.43
2022-12-13T17:12:49.998Z,40.27
2022-12-13T17:15:19.959Z,36.80
2022-12-13T17:17:46.256Z,33.43
2022-12-13T17:20:15.677Z,29.73
2022-12-13T17:22:42.927Z,38.53
2022-12-13T17:25:13.930Z,36.57
2022-12-13T17:27:40.181Z,25.67
2022-12-13T17:30:08.038Z,37.83
2022-12-13T17:32:35.510Z,14.67
2022-12-13T17:35:11.951Z,33.23
2022-12-13T17:37:40.822Z,29.47
2022-12-13T17:40:07.354Z,38.17
2022-12-13T17:42:35.004Z,38.37
2022-12-13T17:45:05.978Z,40.97
2022-12-13T17:47:37.968Z,36.30
2022-12-13T17:50:08.291Z,42.13
2022-12-13T17:52:41.552Z,35.60
2022-12-13T17:55:17.912Z,32.60
2022-12-13T17:57:44.451Z,36.23
2022-12-13T18:00:11.361Z,35.53
2022-12-13T18:02:40.946Z,37.63
2022-12-13T18:05:17.605Z,35.73
2022-12-13T18:07:44.317Z,36.17
2022-12-13T18:10:18.480Z,36.03
2022-12-13T18:12:46.416Z,39.07
2022-12-13T18:15:15.867Z,35.50
2022-12-13T18:18:10.643Z,49.60
2022-12-13T18:20:34.930Z,42.63
2022-12-13T18:23:01.006Z,47.73
2022-12-13T18:25:28.622Z,42.83
2022-12-13T18:28:00.980Z,54.90
2022-12-13T18:30:27.479Z,46.90
2022-12-13T18:32:53.928Z,46.23
2022-12-13T18:35:19.972Z,40.20
2022-12-13T18:37:47.900Z,40.07
2022-12-13T18:40:18.388Z,38.37
2022-12-13T18:42:49.332Z,41.57
2022-12-13T18:45:23.725Z,34.67
2022-12-13T18:47:53.064Z,40.20
2022-12-13T18:50:22.967Z,42.97
2022-12-13T18:52:52.366Z,38.97
2022-12-13T18:55:22.132Z,44.63
2022-12-13T18:57:51.929Z,38.90
2022-12-13T19:00:23.583Z,47.07
2022-12-13T19:02:51.790Z,52.23
2022-12-13T19:05:21.708Z,54.93
2022-12-13T19:07:51.010Z,41.63
2022-12-13T19:10:20.698Z,46.40
2022-12-13T19:12:53.617Z,45.80
2022-12-13T19:15:23.611Z,40.87
2022-12-13T19:18:02.024Z,39.23
2022-12-13T19:20:49.464Z,47.10
2022-12-13T19:23:29.144Z,44.30
2022-12-13T19:26:04.352Z,43.23
2022-12-13T19:28:30.452Z,34.07
2022-12-13T19:30:57.379Z,56.47
2022-12-13T19:33:27.947Z,63.03
2022-12-13T19:36:05.336Z,111.93
2022-12-13T19:38:31.958Z,84.77
2022-12-13T19:40:57.976Z,92.20
2022-12-13T19:43:24.503Z,64.73
2022-12-13T19:45:58.256Z,45.50
2022-12-13T19:48:27.719Z,42.13
2022-12-13T19:51:00.906Z,48.13
2022-12-13T19:53:28.718Z,46.30
2022-12-13T19:55:57.610Z,44.70
2022-12-13T19:58:26.971Z,42.80
2022-12-13T20:01:01.317Z,48.00
2022-12-13T20:03:34.612Z,43.73
2022-12-13T20:06:03.645Z,44.43
2022-12-13T20:08:32.303Z,47.67
2022-12-13T20:11:12.348Z,52.43
2022-12-13T20:13:38.956Z,49.47
2022-12-13T20:16:05.876Z,49.00
2022-12-13T20:18:32.686Z,57.90
2022-12-13T20:21:11.706Z,59.03
2022-12-13T20:23:38.788Z,49.97
2022-12-13T20:26:13.193Z,52.60
2022-12-13T20:28:39.662Z,49.10
2022-12-13T20:31:20.239Z,58.27
2022-12-13T20:33:46.845Z,47.17
2022-12-13T20:36:26.441Z,50.13
2022-12-13T20:38:59.887Z,56.67
2022-12-13T20:41:28.159Z,47.67
2022-12-13T20:43:56.268Z,52.07
2022-12-13T20:46:31.403Z,63.77
2022-12-13T20:49:03.855Z,60.10
2022-12-13T20:51:31.268Z,60.07
2022-12-13T20:53:57.438Z,53.70
2022-12-13T20:56:31.083Z,53.67
2022-12-13T20:58:59.538Z,60.53
2022-12-13T21:01:31.433Z,47.63
2022-12-13T21:03:59.574Z,50.53
2022-12-13T21:06:30.544Z,58.93
2022-12-13T21:09:01.781Z,50.87
2022-12-13T21:11:36.747Z,57.43
2022-12-13T21:14:18.854Z,48.90
2022-12-13T21:16:56.358Z,51.17
2022-12-13T21:19:37.493Z,46.93
2022-12-13T21:22:09.776Z,50.67
2022-12-13T21:24:40.412Z,48.47
2022-12-13T21:27:12.967Z,47.87
2022-12-13T21:29:43.387Z,46.63
2022-12-13T21:32:14.497Z,52.33
2022-12-13T21:34:44.526Z,49.77
2022-12-13T21:37:14.620Z,60.73
2022-12-13T21:39:45.497Z,57.10
2022-12-13T21:42:15.997Z,64.63
2022-12-13T21:44:49.381Z,54.50
2022-12-13T21:47:19.225Z,46.10
2022-12-13T21:49:49.159Z,53.43
2022-12-13T21:52:19.134Z,58.83
2022-12-13T21:54:52.908Z,50.97
2022-12-13T21:57:47.815Z,55.83
2022-12-13T22:00:18.053Z,61.57
2022-12-13T22:02:48.582Z,61.60
2022-12-13T22:05:22.506Z,48.47
2022-12-13T22:07:55.319Z,54.73
2022-12-13T22:10:25.270Z,55.80
2022-12-13T22:13:04.410Z,63.43
2022-12-13T22:15:38.003Z,51.00
2022-12-13T22:18:07.645Z,52.67
2022-12-13T22:20:38.128Z,52.40
2022-12-13T22:23:08.612Z,53.70
2022-12-13T22:25:38.835Z,60.10
2022-12-13T22:28:08.928Z,59.87
2022-12-13T22:30:40.040Z,49.77
2022-12-13T22:33:13.162Z,51.60
2022-12-13T22:35:42.455Z,55.87
2022-12-13T22:38:12.273Z,49.23
2022-12-13T22:40:41.202Z,57.23
2022-12-13T22:43:13.772Z,54.73
2022-12-13T22:45:42.160Z,59.40
2022-12-13T22:48:11.188Z,59.67
2022-12-13T22:50:44.021Z,52.07
2022-12-13T22:53:14.059Z,53.13
2022-12-13T22:55:42.492Z,57.30
2022-12-13T22:58:12.296Z,51.30
2022-12-13T23:00:43.705Z,54.30
2022-12-13T23:03:12.868Z,56.23
2022-12-13T23:05:42.910Z,54.40
2022-12-13T23:08:12.653Z,50.70
2022-12-13T23:11:00.398Z,52.50
2022-12-13T23:13:26.427Z,49.30
2022-12-13T23:15:52.466Z,54.27
2022-12-13T23:18:21.970Z,53.70
2022-12-13T23:20:48.523Z,49.90
2022-12-13T23:23:15.044Z,49.53
2022-12-13T23:25:45.589Z,59.90
2022-12-13T23:28:15.985Z,55.33
2022-12-13T23:30:46.156Z,50.00
2022-12-13T23:33:16.317Z,51.43
2022-12-13T23:35:46.487Z,50.40
2022-12-13T23:38:16.812Z,52.67
2022-12-13T23:40:46.758Z,52.43
2022-12-13T23:43:16.617Z,51.00
2022-12-13T23:45:50.858Z,56.77
2022-12-13T23:48:25.206Z,49.50
2022-12-13T23:50:53.404Z,54.70
2022-12-13T23:53:19.672Z,49.93
2022-12-13T23:55:49.829Z,52.20
2022-12-13T23:58:20.768Z,51.63
